createdAt,value
2018-07-03T07:36:42.559Z,23.90
2018-07-03T07:41:44.022Z,27.50
2018-07-03T07:44:14.294Z,27.60
2018-07-03T07:46:44.467Z,27.50
2018-07-03T07:49:14.806Z,27.60
2018-07-03T07:51:46.647Z,27.60
2018-07-03T07:54:16.717Z,27.60
2018-07-03T07:59:17.052Z,27.70
2018-07-03T08:04:18.216Z,27.80
2018-07-03T08:09:18.125Z,27.80
2018-07-03T08:11:48.211Z,27.70
2018-07-03T08:14:18.327Z,27.70
2018-07-03T08:16:48.690Z,27.80
2018-07-03T08:19:18.846Z,27.90
2018-07-03T08:21:48.945Z,28.00
2018-07-03T08:24:19.047Z,27.90
2018-07-03T08:26:49.269Z,28.10
2018-07-03T08:29:19.484Z,28.10
2018-07-03T08:31:49.552Z,28.20
2018-07-03T08:34:20.629Z,28.50
2018-07-03T08:36:50.795Z,28.50
2018-07-03T08:39:21.150Z,28.40
2018-07-03T08:41:51.617Z,28.40
2018-07-03T08:44:21.900Z,28.40
2018-07-03T08:46:52.420Z,28.60
2018-07-03T08:49:22.771Z,28.70
2018-07-03T08:51:53.384Z,28.90
2018-07-03T08:54:23.630Z,28.80
2018-07-03T08:56:53.587Z,28.80
2018-07-03T08:59:24.396Z,28.80
2018-07-03T09:01:54.532Z,28.80
2018-07-03T09:04:25.285Z,28.70
2018-07-03T09:06:55.964Z,28.60
2018-07-03T09:09:26.741Z,28.70
2018-07-03T09:11:57.494Z,28.90
2018-07-03T09:14:28.183Z,29.00
2018-07-03T09:17:02.943Z,29.00
2018-07-03T09:22:02.486Z,28.90
2018-07-03T09:24:33.031Z,29.00
2018-07-03T09:27:03.935Z,29.00
2018-07-03T09:29:34.931Z,29.10
2018-07-03T09:32:05.352Z,29.20
2018-07-03T09:34:36.653Z,29.50
2018-07-03T09:37:08.555Z,29.50
2018-07-03T09:39:39.157Z,29.50
2018-07-03T09:42:09.858Z,29.90
2018-07-03T09:44:40.376Z,29.90
2018-07-03T09:49:40.308Z,29.90
2018-07-03T09:52:10.897Z,30.00
2018-07-03T09:54:41.182Z,29.90
2018-07-03T09:57:11.760Z,29.80
2018-07-03T10:01:11.334Z,30.00
2018-07-03T10:03:41.466Z,30.40
2018-07-03T10:06:11.753Z,30.40
2018-07-03T10:08:42.114Z,30.60
2018-07-03T10:11:12.800Z,30.30
2018-07-03T10:13:43.117Z,30.10
2018-07-03T10:16:13.246Z,30.00
2018-07-03T10:18:43.647Z,30.10
2018-07-03T10:21:14.099Z,30.40
2018-07-03T10:23:44.501Z,30.30
2018-07-03T10:26:14.523Z,30.30
2018-07-03T10:28:44.695Z,30.30
2018-07-03T10:31:15.054Z,30.20
2018-07-03T10:33:45.361Z,30.00
2018-07-03T10:36:15.633Z,30.30
2018-07-03T10:38:46.199Z,30.60
2018-07-03T10:43:47.150Z,31.00
2018-07-03T10:46:17.341Z,31.00
2018-07-03T10:48:47.575Z,31.00
2018-07-03T10:51:17.794Z,30.80
2018-07-03T10:53:48.129Z,30.90
2018-07-03T10:58:47.861Z,30.80
2018-07-03T11:01:18.039Z,30.60
2018-07-03T11:03:48.747Z,30.60
2018-07-03T11:06:19.001Z,30.60
2018-07-03T11:08:49.593Z,30.60
2018-07-03T11:11:19.888Z,30.40
2018-07-03T11:13:50.143Z,30.40
2018-07-03T11:16:20.448Z,30.40
2018-07-03T11:18:51.285Z,30.30
2018-07-03T11:21:21.473Z,30.20
2018-07-03T11:23:51.645Z,30.10
2018-07-03T11:26:21.775Z,30.00
2018-07-03T11:28:52.070Z,30.00
2018-07-03T11:31:22.341Z,30.10
2018-07-03T11:33:52.585Z,29.80
2018-07-03T11:36:23.005Z,29.70
2018-07-03T11:38:53.041Z,29.80
2018-07-03T11:41:23.457Z,29.90
2018-07-03T11:43:53.832Z,30.00
2018-07-03T11:46:24.524Z,30.10
2018-07-03T11:48:54.854Z,30.20
2018-07-03T11:51:25.506Z,30.30
2018-07-03T11:53:55.850Z,30.20
2018-07-03T11:56:26.414Z,30.10
2018-07-03T11:58:56.852Z,30.20
2018-07-03T12:01:27.488Z,30.50
2018-07-03T12:03:57.670Z,30.40
2018-07-03T12:06:27.947Z,30.20
2018-07-03T12:08:58.340Z,30.30
2018-07-03T12:11:28.914Z,30.40
2018-07-03T12:16:28.586Z,30.40
2018-07-03T12:18:59.493Z,30.70
2018-07-03T12:21:30.396Z,30.70
2018-07-03T12:24:00.799Z,30.80
2018-07-03T12:26:32.465Z,30.90
2018-07-03T12:29:02.706Z,30.90
2018-07-03T12:31:33.235Z,30.50
2018-07-03T12:34:03.670Z,30.60
2018-07-03T12:36:33.596Z,30.90
2018-07-03T12:39:05.130Z,31.50
2018-07-03T12:41:35.495Z,31.50
2018-07-03T12:44:05.825Z,31.90
2018-07-03T12:46:35.774Z,31.90
2018-07-03T12:49:05.817Z,32.00
2018-07-03T12:51:35.857Z,32.40
2018-07-03T12:54:06.487Z,33.20
2018-07-03T12:56:36.716Z,33.10
2018-07-03T12:59:07.325Z,32.60
2018-07-03T13:04:08.302Z,32.50
2018-07-03T13:06:38.499Z,32.80
2018-07-03T13:11:39.266Z,34.00
2018-07-03T13:14:09.562Z,33.50
2018-07-03T13:16:40.133Z,33.80
2018-07-03T13:19:10.350Z,34.10
2018-07-03T13:21:40.580Z,33.60
2018-07-03T13:24:10.898Z,33.50
2018-07-03T13:26:41.340Z,33.10
2018-07-03T13:29:11.808Z,32.80
2018-07-03T13:31:41.917Z,33.60
2018-07-03T13:34:12.049Z,33.90
2018-07-03T13:36:42.145Z,33.10
2018-07-03T13:39:12.707Z,32.90
2018-07-03T13:41:43.069Z,33.00
2018-07-03T13:44:13.600Z,32.40
2018-07-03T13:46:43.874Z,32.70
2018-07-03T13:49:13.988Z,32.60
2018-07-03T13:51:44.220Z,32.20
2018-07-03T13:54:14.701Z,32.80
2018-07-03T13:56:44.991Z,33.30
2018-07-03T13:59:15.457Z,34.00
2018-07-03T14:01:45.665Z,34.00
2018-07-03T14:04:15.894Z,34.30
2018-07-03T14:06:46.282Z,33.80
2018-07-03T14:11:46.330Z,34.20
2018-07-03T14:14:16.324Z,33.70
2018-07-03T14:21:45.675Z,34.70
2018-07-03T14:24:16.104Z,34.30
2018-07-03T14:26:46.254Z,33.70
2018-07-03T14:29:16.407Z,33.70
2018-07-03T14:31:48.016Z,33.80
2018-07-03T14:34:23.747Z,33.80
2018-07-03T14:36:55.296Z,33.70
2018-07-03T14:39:25.895Z,33.70
2018-07-03T14:41:56.350Z,34.10
2018-07-03T14:44:28.858Z,33.90
2018-07-03T14:46:59.298Z,33.90
2018-07-03T14:49:31.042Z,33.20
2018-07-03T14:52:01.087Z,34.00
2018-07-03T14:54:31.338Z,34.00
2018-07-03T14:57:01.804Z,34.20
2018-07-03T14:59:32.792Z,33.60
2018-07-03T15:02:04.208Z,33.40
